Terminal Aerodrome Forecast
Issued by NWS Cleveland, OH

Home | Current Version | Previous Version | Text Only | Print | Product List | Glossary Off
Versions: 1 2 3 4 5 6 7 8 9 10 11 12 13 14 15 16 17 18 19 20 21 22 23 24 25

114
FTUS41 KCLE 141636 AAA
TAFERI
TAF AMD
KERI 141636Z 1417/1512 29006KT P6SM VCSH SCT025 OVC035
      TEMPO 1418/1422 3SM -SHSN OVC025
     FM142200 29008KT P6SM OVC015
     FM150300 24008KT P6SM SCT015 OVC025=

USA.gov is the U.S. government's official web portal to all federal, state and local government web resources and services.